Time;durP1;ratioP1;P1;durP2;ratioP2;P2;SDS_P1;SDS_P2;PMS_P1;PMS_P2;Temp;Humidity;BMP_temperature;BMP_pressure;BME280_temperature;BME280_humidity;BME280_pressure;Samples;Min_cycle;Max_cycle;Signal;HPM_P1;HPM_P2
2023/05/07 00:01:45;;;;;;;2.50;2.40;;;;;;;;;;5119519;28;20226;-66
2023/05/07 00:04:13;;;;;;;2.88;2.67;;;;;;;;;;5119168;28;20210;-66
2023/05/07 00:06:40;;;;;;;2.95;2.70;;;;;;;;;;5119303;28;20231;-66
2023/05/07 00:09:08;;;;;;;2.40;2.30;;;;;;;;;;5119589;28;20241;-66
2023/05/07 00:11:36;;;;;;;2.53;2.42;;;;;;;;;;5119616;28;20209;-66
2023/05/07 00:14:03;;;;;;;2.42;2.33;;;;;;;;;;5119755;28;20602;-67
2023/05/07 00:16:31;;;;;;;2.70;2.50;;;;;;;;;;5119446;28;20252;-66
2023/05/07 00:19:00;;;;;;;2.55;2.45;;;;;;;;;;5119155;28;20211;-66
2023/05/07 00:21:27;;;;;;;2.60;2.50;;;;;;;;;;5118643;28;20263;-66
2023/05/07 00:23:55;;;;;;;2.88;2.67;;;;;;;;;;5119219;28;20253;-66
2023/05/07 00:26:22;;;;;;;2.80;2.60;;;;;;;;;;5119016;28;20226;-66
2023/05/07 00:28:50;;;;;;;2.90;2.70;;;;;;;;;;5118895;28;20264;-66
2023/05/07 00:31:18;;;;;;;2.78;2.58;;;;;;;;;;5118735;28;20533;-66
2023/05/07 00:33:45;;;;;;;2.45;2.35;;;;;;;;;;5118850;28;20272;-66
2023/05/07 00:36:14;;;;;;;3.03;2.83;;;;;;;;;;5119042;28;20203;-66
2023/05/07 00:38:42;;;;;;;2.70;2.50;;;;;;;;;;5119127;28;20241;-66
2023/05/07 00:41:09;;;;;;;3.00;2.80;;;;;;;;;;5118486;28;20264;-66
2023/05/07 00:43:37;;;;;;;3.00;2.80;;;;;;;;;;5118607;28;20211;-66
2023/05/07 00:46:05;;;;;;;2.75;2.55;;;;;;;;;;5118698;28;20260;-66
2023/05/07 00:48:33;;;;;;;2.92;2.72;;;;;;;;;;5118624;28;20255;-66
2023/05/07 00:51:00;;;;;;;2.90;2.70;;;;;;;;;;5118779;28;20210;-66
2023/05/07 00:53:30;;;;;;;2.92;2.72;;;;;;;;;;5118754;28;20211;-66
2023/05/07 00:55:57;;;;;;;2.90;2.70;;;;;;;;;;5118848;28;20198;-65
2023/05/07 00:58:26;;;;;;;3.10;2.90;;;;;;;;;;5118568;28;20255;-65
2023/05/07 01:00:53;;;;;;;2.95;2.75;;;;;;;;;;5118101;28;20252;-70
2023/05/07 01:03:21;;;;;;;3.00;2.80;;;;;;;;;;5118992;28;20280;-66
2023/05/07 01:05:50;;;;;;;3.20;3.00;;;;;;;;;;5118731;28;20258;-65
2023/05/07 01:08:17;;;;;;;3.00;2.80;;;;;;;;;;5118923;28;20203;-65
2023/05/07 01:10:47;;;;;;;3.10;2.90;;;;;;;;;;5118184;28;20234;-66
2023/05/07 01:13:15;;;;;;;3.20;3.00;;;;;;;;;;5118642;28;20210;-66
2023/05/07 01:15:43;;;;;;;3.15;2.95;;;;;;;;;;5119004;28;20207;-66
2023/05/07 01:18:10;;;;;;;3.50;3.20;;;;;;;;;;5118591;28;20210;-66
2023/05/07 01:20:38;;;;;;;3.17;2.97;;;;;;;;;;5118201;28;20210;-66
2023/05/07 01:23:08;;;;;;;3.20;3.00;;;;;;;;;;5118429;28;20249;-66
2023/05/07 01:25:36;;;;;;;3.20;3.00;;;;;;;;;;5117903;28;20314;-66
2023/05/07 01:28:04;;;;;;;3.00;2.80;;;;;;;;;;5118768;28;20202;-66
2023/05/07 01:30:32;;;;;;;3.30;3.10;;;;;;;;;;5117956;28;20225;-66
2023/05/07 01:33:01;;;;;;;3.20;3.00;;;;;;;;;;5118183;28;20210;-66
2023/05/07 01:35:31;;;;;;;3.15;2.95;;;;;;;;;;5118765;28;20211;-66
2023/05/07 01:37:58;;;;;;;3.35;3.15;;;;;;;;;;5118276;28;20207;-66
2023/05/07 01:40:28;;;;;;;3.55;3.30;;;;;;;;;;5118392;28;20275;-66
2023/05/07 01:42:56;;;;;;;3.50;3.20;;;;;;;;;;5118408;28;20203;-66
2023/05/07 01:45:24;;;;;;;3.30;3.10;;;;;;;;;;5117801;28;20652;-66
2023/05/07 01:47:52;;;;;;;3.42;3.22;;;;;;;;;;5118004;28;20267;-66
2023/05/07 01:50:21;;;;;;;3.45;3.25;;;;;;;;;;5118357;28;20599;-66
2023/05/07 01:52:48;;;;;;;3.40;3.20;;;;;;;;;;5118181;28;20203;-66
2023/05/07 01:55:16;;;;;;;3.17;2.97;;;;;;;;;;5118295;28;20225;-67
2023/05/07 01:57:45;;;;;;;3.40;3.20;;;;;;;;;;5118135;28;20279;-66
2023/05/07 02:00:13;;;;;;;3.60;3.40;;;;;;;;;;5118094;28;20256;-66
2023/05/07 02:02:41;;;;;;;3.55;3.35;;;;;;;;;;5118064;28;20246;-66
2023/05/07 02:05:09;;;;;;;3.40;3.20;;;;;;;;;;5118475;28;20246;-66
2023/05/07 02:07:36;;;;;;;3.58;3.38;;;;;;;;;;5118222;28;20234;-66
2023/05/07 02:10:04;;;;;;;3.65;3.45;;;;;;;;;;5117780;28;20203;-65
2023/05/07 02:12:32;;;;;;;3.50;3.30;;;;;;;;;;5120701;28;20203;-66
2023/05/07 02:15:01;;;;;;;3.90;3.60;;;;;;;;;;5121694;28;20202;-66
2023/05/07 02:17:31;;;;;;;3.40;3.10;;;;;;;;;;5121931;28;20237;-66
2023/05/07 02:19:59;;;;;;;3.70;3.40;;;;;;;;;;5121829;28;20305;-66
2023/05/07 02:22:27;;;;;;;3.75;3.45;;;;;;;;;;5121290;28;20238;-68
2023/05/07 02:24:54;;;;;;;3.35;3.15;;;;;;;;;;5121664;28;20246;-66
2023/05/07 02:27:22;;;;;;;3.58;3.33;;;;;;;;;;5121788;28;20227;-66
2023/05/07 02:29:49;;;;;;;3.72;3.53;;;;;;;;;;5121804;28;20233;-66
2023/05/07 02:32:18;;;;;;;3.90;3.60;;;;;;;;;;5121461;28;20255;-66
2023/05/07 02:34:46;;;;;;;3.60;3.38;;;;;;;;;;5121992;28;20488;-66
2023/05/07 02:37:14;;;;;;;3.38;3.17;;;;;;;;;;5121325;28;20268;-66
2023/05/07 02:39:42;;;;;;;3.60;3.40;;;;;;;;;;5121656;28;20203;-66
2023/05/07 02:42:09;;;;;;;3.15;2.95;;;;;;;;;;5121489;28;20233;-66
2023/05/07 02:44:37;;;;;;;3.67;3.47;;;;;;;;;;5121407;28;20301;-66
2023/05/07 02:47:08;;;;;;;3.75;3.53;;;;;;;;;;5121324;28;20249;-66
2023/05/07 02:49:37;;;;;;;3.88;3.58;;;;;;;;;;5121298;28;20203;-66
2023/05/07 02:52:04;;;;;;;3.72;3.42;;;;;;;;;;5121150;28;20273;-67
2023/05/07 02:54:32;;;;;;;4.00;3.70;;;;;;;;;;5121339;28;20202;-66
2023/05/07 02:57:00;;;;;;;3.60;3.40;;;;;;;;;;5121005;28;20198;-66
2023/05/07 02:59:28;;;;;;;4.13;3.83;;;;;;;;;;5120974;28;20572;-66
2023/05/07 03:01:56;;;;;;;3.58;3.38;;;;;;;;;;5120613;28;20203;-66
2023/05/07 03:04:24;;;;;;;3.85;3.55;;;;;;;;;;5120802;28;20207;-66
2023/05/07 03:06:53;;;;;;;3.85;3.55;;;;;;;;;;5120956;28;20223;-66
2023/05/07 03:09:20;;;;;;;3.60;3.40;;;;;;;;;;5120998;28;20243;-66
2023/05/07 03:11:48;;;;;;;3.85;3.55;;;;;;;;;;5121006;28;20233;-66
2023/05/07 03:14:16;;;;;;;3.58;3.38;;;;;;;;;;5120521;28;20210;-66
2023/05/07 03:16:44;;;;;;;3.95;3.65;;;;;;;;;;5120260;28;20199;-67
2023/05/07 03:19:12;;;;;;;3.75;3.45;;;;;;;;;;5120302;28;20293;-66
2023/05/07 03:21:40;;;;;;;3.92;3.63;;;;;;;;;;5120258;28;20571;-66
2023/05/07 03:24:09;;;;;;;3.75;3.45;;;;;;;;;;5120289;28;20211;-66
2023/05/07 03:26:37;;;;;;;3.60;3.40;;;;;;;;;;5120400;28;20317;-66
2023/05/07 03:29:05;;;;;;;3.75;3.55;;;;;;;;;;5120706;27;20229;-66
2023/05/07 03:31:33;;;;;;;3.70;3.50;;;;;;;;;;5119902;28;20207;-66
2023/05/07 03:34:01;;;;;;;3.72;3.50;;;;;;;;;;5120505;28;20213;-66
2023/05/07 03:36:28;;;;;;;3.60;3.40;;;;;;;;;;5120434;28;20210;-66
2023/05/07 03:38:56;;;;;;;4.00;3.70;;;;;;;;;;5120349;28;20210;-66
2023/05/07 03:41:26;;;;;;;4.10;3.80;;;;;;;;;;5120036;28;20556;-66
2023/05/07 03:43:53;;;;;;;3.80;3.60;;;;;;;;;;5120255;28;20505;-66
2023/05/07 03:46:21;;;;;;;4.05;3.75;;;;;;;;;;5119935;28;20238;-66
2023/05/07 03:48:48;;;;;;;3.95;3.65;;;;;;;;;;5119949;28;20218;-66
2023/05/07 03:51:15;;;;;;;3.80;3.50;;;;;;;;;;5119739;28;20604;-66
2023/05/07 03:53:43;;;;;;;3.90;3.60;;;;;;;;;;5120056;28;20549;-66
2023/05/07 03:56:11;;;;;;;3.47;3.28;;;;;;;;;;5119480;28;20595;-66
2023/05/07 03:58:39;;;;;;;3.72;3.53;;;;;;;;;;5120401;28;20214;-66
2023/05/07 04:01:07;;;;;;;3.88;3.67;;;;;;;;;;5119864;28;20211;-66
2023/05/07 04:03:34;;;;;;;4.00;3.70;;;;;;;;;;5119800;28;20567;-66
2023/05/07 04:06:01;;;;;;;3.88;3.58;;;;;;;;;;5119759;28;20301;-66
2023/05/07 04:08:30;;;;;;;3.88;3.58;;;;;;;;;;5120244;28;20481;-66
2023/05/07 04:10:58;;;;;;;3.97;3.67;;;;;;;;;;5118930;28;20630;-65
2023/05/07 04:13:25;;;;;;;3.90;3.60;;;;;;;;;;5119719;27;20203;-65
2023/05/07 04:15:54;;;;;;;4.10;3.80;;;;;;;;;;5119798;28;20214;-65
2023/05/07 04:18:22;;;;;;;3.90;3.60;;;;;;;;;;5119617;27;20203;-65
2023/05/07 04:20:50;;;;;;;4.07;3.78;;;;;;;;;;5119463;28;20211;-66
2023/05/07 04:23:17;;;;;;;4.05;3.75;;;;;;;;;;5119587;28;20203;-66
2023/05/07 04:25:45;;;;;;;4.00;3.70;;;;;;;;;;5119201;28;20649;-67
2023/05/07 04:28:12;;;;;;;3.88;3.58;;;;;;;;;;5119210;28;20233;-66
2023/05/07 04:30:41;;;;;;;4.20;3.90;;;;;;;;;;5119078;28;20215;-66
2023/05/07 04:33:10;;;;;;;3.70;3.50;;;;;;;;;;5119295;28;20604;-66
2023/05/07 04:35:38;;;;;;;4.40;4.10;;;;;;;;;;5118672;28;20211;-65
2023/05/07 04:38:05;;;;;;;3.70;3.50;;;;;;;;;;5118741;28;20199;-65
2023/05/07 04:40:32;;;;;;;4.10;3.80;;;;;;;;;;5119030;28;20566;-65
2023/05/07 04:43:00;;;;;;;4.22;3.92;;;;;;;;;;5119084;28;20203;-66
2023/05/07 04:45:27;;;;;;;4.50;4.20;;;;;;;;;;5118919;28;20202;-65
2023/05/07 04:47:54;;;;;;;4.25;3.95;;;;;;;;;;5118310;28;20227;-67
2023/05/07 04:50:24;;;;;;;4.45;4.15;;;;;;;;;;5118775;28;20273;-67
2023/05/07 04:52:51;;;;;;;4.63;4.32;;;;;;;;;;5119025;28;20286;-66
2023/05/07 04:55:19;;;;;;;4.30;3.97;;;;;;;;;;5118558;28;20210;-66
2023/05/07 04:57:47;;;;;;;4.10;3.80;;;;;;;;;;5118388;28;20276;-67
2023/05/07 05:00:15;;;;;;;4.40;4.10;;;;;;;;;;5118568;28;20261;-65
2023/05/07 05:02:42;;;;;;;4.70;4.32;;;;;;;;;;5118770;28;20264;-66
2023/05/07 05:05:10;;;;;;;4.55;4.25;;;;;;;;;;5118777;28;20245;-66
2023/05/07 05:07:39;;;;;;;4.10;3.80;;;;;;;;;;5118344;28;20729;-66
2023/05/07 05:10:07;;;;;;;4.10;3.80;;;;;;;;;;5118689;28;20203;-68
2023/05/07 05:12:34;;;;;;;4.10;3.80;;;;;;;;;;5118932;28;20493;-66
2023/05/07 05:15:01;;;;;;;4.28;3.97;;;;;;;;;;5118813;28;20214;-67
2023/05/07 05:17:29;;;;;;;4.30;4.00;;;;;;;;;;5118341;28;20206;-66
2023/05/07 05:19:57;;;;;;;4.40;4.10;;;;;;;;;;5118848;28;20480;-67
2023/05/07 05:22:25;;;;;;;4.43;4.13;;;;;;;;;;5118053;28;20238;-66
2023/05/07 05:24:54;;;;;;;4.50;4.20;;;;;;;;;;5117996;28;20227;-65
2023/05/07 05:27:21;;;;;;;4.20;3.90;;;;;;;;;;5118236;28;20223;-66
2023/05/07 05:29:49;;;;;;;4.18;3.88;;;;;;;;;;5118011;28;20246;-66
2023/05/07 05:32:16;;;;;;;4.53;4.15;;;;;;;;;;5117736;28;20221;-66
2023/05/07 05:34:43;;;;;;;4.50;4.20;;;;;;;;;;5118614;28;20214;-66
2023/05/07 05:37:11;;;;;;;4.20;3.90;;;;;;;;;;5118414;28;20575;-66
2023/05/07 05:39:38;;;;;;;4.70;4.40;;;;;;;;;;5117524;28;20210;-66
2023/05/07 05:42:07;;;;;;;4.55;4.18;;;;;;;;;;5117775;28;20213;-66
2023/05/07 05:44:35;;;;;;;4.40;4.10;;;;;;;;;;5117818;28;20209;-66
2023/05/07 05:47:02;;;;;;;4.22;3.92;;;;;;;;;;5119947;28;20526;-66
2023/05/07 05:49:29;;;;;;;4.50;4.20;;;;;;;;;;5122012;28;20214;-66
2023/05/07 05:51:56;;;;;;;4.65;4.35;;;;;;;;;;5122663;28;20209;-66
2023/05/07 05:54:24;;;;;;;4.45;4.15;;;;;;;;;;5121133;28;20237;-66
2023/05/07 05:56:51;;;;;;;4.15;3.85;;;;;;;;;;5121772;28;20202;-66
2023/05/07 05:59:20;;;;;;;3.90;3.60;;;;;;;;;;5122422;28;20291;-66
2023/05/07 06:01:48;;;;;;;4.60;4.30;;;;;;;;;;5122017;28;20506;-65
2023/05/07 06:04:15;;;;;;;4.15;3.85;;;;;;;;;;5121904;28;20203;-67
2023/05/07 06:06:42;;;;;;;4.50;4.20;;;;;;;;;;5122244;28;20509;-66
2023/05/07 06:09:10;;;;;;;4.43;4.13;;;;;;;;;;5121885;28;20283;-65
2023/05/07 06:11:38;;;;;;;4.70;4.40;;;;;;;;;;5122455;28;20567;-65
2023/05/07 06:14:05;;;;;;;4.20;3.90;;;;;;;;;;5121879;28;20459;-66
2023/05/07 06:16:34;;;;;;;4.40;4.10;;;;;;;;;;5121435;28;20203;-66
2023/05/07 06:19:01;;;;;;;4.43;4.13;;;;;;;;;;5121434;28;20199;-66
2023/05/07 06:21:28;;;;;;;4.63;4.28;;;;;;;;;;5121104;28;20202;-66
2023/05/07 06:23:56;;;;;;;4.47;4.13;;;;;;;;;;5121239;28;20202;-66
2023/05/07 06:26:23;;;;;;;4.35;4.05;;;;;;;;;;5120553;28;20213;-66
2023/05/07 06:28:51;;;;;;;4.07;3.78;;;;;;;;;;5121694;28;20245;-66
2023/05/07 06:31:20;;;;;;;4.00;3.70;;;;;;;;;;5121560;27;20279;-66
2023/05/07 06:33:49;;;;;;;4.20;3.90;;;;;;;;;;5121135;28;20264;-66
2023/05/07 06:36:17;;;;;;;4.22;3.92;;;;;;;;;;5120955;28;20230;-66
2023/05/07 06:38:45;;;;;;;4.30;4.00;;;;;;;;;;5121014;28;20203;-66
2023/05/07 06:41:12;;;;;;;4.43;4.13;;;;;;;;;;5120783;28;20202;-66
2023/05/07 06:43:39;;;;;;;4.13;3.83;;;;;;;;;;5120960;28;20203;-65
2023/05/07 06:46:06;;;;;;;4.30;4.00;;;;;;;;;;5121040;28;20202;-66
2023/05/07 06:48:34;;;;;;;4.25;3.95;;;;;;;;;;5120304;28;20226;-66
2023/05/07 06:51:03;;;;;;;4.10;3.80;;;;;;;;;;5120426;28;20207;-65
2023/05/07 06:53:30;;;;;;;4.13;3.40;;;;;;;;;;5120663;28;20202;-65
2023/05/07 06:55:57;;;;;;;3.83;3.53;;;;;;;;;;5120488;28;20211;-65
2023/05/07 06:58:25;;;;;;;3.78;3.47;;;;;;;;;;5120306;28;20199;-66
2023/05/07 07:00:53;;;;;;;4.03;3.72;;;;;;;;;;5121014;28;20203;-65
2023/05/07 07:03:20;;;;;;;3.95;3.65;;;;;;;;;;5120521;28;20199;-66
2023/05/07 07:05:48;;;;;;;4.10;3.80;;;;;;;;;;5120962;28;20261;-66
2023/05/07 07:08:17;;;;;;;3.38;3.17;;;;;;;;;;5120218;28;20226;-66
2023/05/07 07:10:45;;;;;;;4.28;3.97;;;;;;;;;;5120331;28;20203;-66
2023/05/07 07:13:12;;;;;;;3.95;3.65;;;;;;;;;;5119931;28;20498;-66
2023/05/07 07:15:39;;;;;;;3.88;3.58;;;;;;;;;;5119851;28;20199;-66
2023/05/07 07:18:07;;;;;;;3.67;3.38;;;;;;;;;;5120295;28;20468;-66
2023/05/07 07:20:35;;;;;;;3.95;3.63;;;;;;;;;;5120232;28;20214;-66
2023/05/07 07:23:02;;;;;;;3.90;3.60;;;;;;;;;;5119416;28;20495;-66
2023/05/07 07:25:31;;;;;;;3.67;3.38;;;;;;;;;;5119814;28;20231;-66
2023/05/07 07:27:58;;;;;;;3.90;3.60;;;;;;;;;;5120005;28;20227;-66
2023/05/07 07:30:26;;;;;;;3.88;3.63;;;;;;;;;;5119238;28;20203;-66
2023/05/07 07:32:53;;;;;;;3.97;3.67;;;;;;;;;;5119288;28;20202;-66
2023/05/07 07:35:20;;;;;;;3.90;3.60;;;;;;;;;;5119348;28;20202;-66
2023/05/07 07:37:49;;;;;;;3.55;3.35;;;;;;;;;;5119895;28;20590;-66
2023/05/07 07:40:17;;;;;;;3.63;3.35;;;;;;;;;;5119899;28;20211;-66
2023/05/07 07:42:45;;;;;;;3.90;3.60;;;;;;;;;;5120236;28;20250;-66
2023/05/07 07:45:13;;;;;;;3.78;3.47;;;;;;;;;;5119992;27;20203;-66
2023/05/07 07:47:41;;;;;;;3.45;3.25;;;;;;;;;;5119503;28;20234;-66
2023/05/07 07:50:08;;;;;;;4.00;3.70;;;;;;;;;;5119299;28;20235;-66
2023/05/07 07:52:36;;;;;;;4.10;3.80;;;;;;;;;;5118788;28;20203;-66
2023/05/07 07:55:04;;;;;;;3.63;3.42;;;;;;;;;;5119476;28;20199;-65
2023/05/07 07:57:31;;;;;;;4.15;3.85;;;;;;;;;;5119384;28;20520;-66
2023/05/07 08:00:00;;;;;;;3.45;3.25;;;;;;;;;;5119100;28;20207;-66
2023/05/07 08:02:28;;;;;;;3.88;3.58;;;;;;;;;;5118365;28;20214;-66
2023/05/07 08:04:55;;;;;;;3.78;3.47;;;;;;;;;;5118891;28;20203;-66
2023/05/07 08:07:22;;;;;;;3.50;3.30;;;;;;;;;;5119096;28;20203;-67
2023/05/07 08:09:50;;;;;;;3.95;3.65;;;;;;;;;;5118041;28;20214;-66
2023/05/07 08:12:17;;;;;;;3.78;3.55;;;;;;;;;;5119296;28;20211;-66
2023/05/07 08:14:45;;;;;;;4.07;3.78;;;;;;;;;;5118662;28;20203;-66
2023/05/07 08:17:15;;;;;;;4.10;3.80;;;;;;;;;;5119036;28;20207;-66
2023/05/07 08:19:43;;;;;;;3.97;3.67;;;;;;;;;;5118849;28;20210;-66
2023/05/07 08:22:11;;;;;;;3.72;3.50;;;;;;;;;;5118858;28;20234;-66
2023/05/07 08:24:39;;;;;;;3.85;3.55;;;;;;;;;;5118301;28;20257;-66
2023/05/07 08:27:06;;;;;;;3.88;3.58;;;;;;;;;;5118299;28;20268;-66
2023/05/07 08:29:34;;;;;;;3.90;3.60;;;;;;;;;;5118745;28;20223;-66
2023/05/07 08:32:01;;;;;;;3.90;3.60;;;;;;;;;;5118624;28;20493;-67
2023/05/07 08:34:30;;;;;;;3.88;3.58;;;;;;;;;;5118722;28;20206;-66
2023/05/07 08:36:57;;;;;;;3.63;3.33;;;;;;;;;;5118881;28;20203;-65
2023/05/07 08:39:24;;;;;;;4.05;3.75;;;;;;;;;;5118695;28;20199;-66
2023/05/07 08:41:55;;;;;;;3.40;3.20;;;;;;;;;;5118310;28;20688;-66
2023/05/07 08:44:24;;;;;;;4.30;4.00;;;;;;;;;;5118435;28;20215;-66
2023/05/07 08:46:54;;;;;;;3.53;3.28;;;;;;;;;;5118562;28;20595;-67
2023/05/07 08:49:21;;;;;;;3.70;3.40;;;;;;;;;;5118098;28;20677;-67
2023/05/07 08:51:51;;;;;;;3.53;3.22;;;;;;;;;;5117878;28;20203;-67
2023/05/07 08:54:19;;;;;;;3.60;3.40;;;;;;;;;;5116739;28;20199;-67
2023/05/07 08:56:46;;;;;;;3.35;3.15;;;;;;;;;;5117666;28;20263;-66
2023/05/07 08:59:14;;;;;;;3.40;3.15;;;;;;;;;;5117883;28;20207;-66
2023/05/07 09:01:41;;;;;;;3.72;3.42;;;;;;;;;;5117737;28;20218;-66
2023/05/07 09:04:09;;;;;;;3.90;3.60;;;;;;;;;;5117922;28;20264;-65
2023/05/07 09:06:37;;;;;;;3.88;3.58;;;;;;;;;;5117765;28;20203;-66
2023/05/07 09:09:06;;;;;;;4.22;3.83;;;;;;;;;;5117831;28;20625;-66
2023/05/07 09:11:33;;;;;;;3.88;3.58;;;;;;;;;;5117493;28;20203;-67
2023/05/07 09:14:02;;;;;;;3.80;3.50;;;;;;;;;;5108592;28;20589;-66
2023/05/07 09:16:30;;;;;;;3.60;3.40;;;;;;;;;;5111264;28;20241;-67
2023/05/07 09:19:00;;;;;;;4.15;3.85;;;;;;;;;;5107194;28;20202;-66
2023/05/07 09:21:28;;;;;;;4.25;3.80;;;;;;;;;;5105331;28;20203;-66
2023/05/07 09:23:56;;;;;;;4.20;3.90;;;;;;;;;;5110002;28;20498;-66
2023/05/07 09:26:25;;;;;;;3.75;3.45;;;;;;;;;;5071018;28;20223;-67
2023/05/07 09:28:53;;;;;;;4.53;4.13;;;;;;;;;;5061009;28;20243;-66
2023/05/07 09:31:23;;;;;;;4.05;3.75;;;;;;;;;;5062277;28;20218;-66
2023/05/07 09:33:50;;;;;;;4.10;3.80;;;;;;;;;;5061835;28;20213;-66
2023/05/07 09:36:18;;;;;;;4.85;4.38;;;;;;;;;;5056974;28;20219;-66
2023/05/07 09:38:45;;;;;;;4.13;3.83;;;;;;;;;;5056554;28;20209;-66
2023/05/07 09:41:13;;;;;;;4.57;4.18;;;;;;;;;;5057503;28;20205;-68
2023/05/07 09:43:42;;;;;;;4.03;3.72;;;;;;;;;;5056776;28;20204;-66
2023/05/07 09:46:10;;;;;;;4.50;4.10;;;;;;;;;;5057288;28;20204;-66
2023/05/07 09:48:39;;;;;;;4.72;4.32;;;;;;;;;;5057200;28;20537;-66
2023/05/07 09:51:11;;;;;;;4.40;4.10;;;;;;;;;;5057036;28;20251;-66
2023/05/07 09:53:39;;;;;;;4.53;4.20;;;;;;;;;;5056588;28;20217;-66
2023/05/07 09:56:06;;;;;;;4.75;4.45;;;;;;;;;;5056258;28;20628;-66
2023/05/07 09:58:35;;;;;;;5.10;4.60;;;;;;;;;;5055960;28;20213;-66
2023/05/07 10:01:04;;;;;;;5.10;4.70;;;;;;;;;;5056582;28;20205;-66
2023/05/07 10:03:33;;;;;;;5.10;4.70;;;;;;;;;;5056688;28;20206;-67
2023/05/07 10:06:00;;;;;;;4.72;4.18;;;;;;;;;;5057005;28;20244;-67
2023/05/07 10:08:27;;;;;;;4.90;4.50;;;;;;;;;;5056125;28;20228;-66
2023/05/07 10:10:55;;;;;;;4.70;4.30;;;;;;;;;;5056048;28;20213;-66
2023/05/07 10:13:22;;;;;;;4.50;4.10;;;;;;;;;;5055823;28;20220;-67
2023/05/07 10:15:50;;;;;;;5.07;4.68;;;;;;;;;;5056096;28;20582;-68
2023/05/07 10:18:22;;;;;;;5.40;4.53;;;;;;;;;;5056599;28;20217;-66
2023/05/07 10:20:50;;;;;;;5.15;3.92;;;;;;;;;;5056674;28;20204;-66
2023/05/07 10:23:21;;;;;;;4.93;4.43;;;;;;;;;;5055835;28;20232;-66
2023/05/07 10:25:48;;;;;;;5.25;4.50;;;;;;;;;;5086376;28;20239;-66
2023/05/07 10:28:17;;;;;;;5.03;4.30;;;;;;;;;;5095768;28;20226;-66
2023/05/07 10:30:50;;;;;;;6.07;4.80;;;;;;;;;;5096796;28;20203;-66
2023/05/07 10:33:18;;;;;;;4.68;4.13;;;;;;;;;;5098590;28;20211;-67
2023/05/07 10:35:47;;;;;;;4.53;4.13;;;;;;;;;;5099808;28;20215;-67
2023/05/07 10:38:15;;;;;;;5.10;4.53;;;;;;;;;;5100211;28;20203;-69
2023/05/07 10:40:42;;;;;;;4.95;4.45;;;;;;;;;;5100414;28;20210;-66
2023/05/07 10:43:10;;;;;;;5.50;4.60;;;;;;;;;;5100063;28;20203;-66
2023/05/07 10:45:37;;;;;;;4.85;4.45;;;;;;;;;;5099632;28;20215;-66
2023/05/07 10:48:08;;;;;;;4.97;4.47;;;;;;;;;;5100327;28;20204;-66
2023/05/07 10:50:36;;;;;;;4.80;4.40;;;;;;;;;;5100085;28;20302;-66
2023/05/07 10:53:28;;;;;;;5.10;4.57;;;;;;;;;;5099200;28;20607;-66
2023/05/07 10:56:14;;;;;;;4.55;4.15;;;;;;;;;;5099168;28;20203;-66
2023/05/07 10:58:41;;;;;;;4.53;4.10;;;;;;;;;;5099362;28;20200;-66
2023/05/07 11:01:10;;;;;;;4.45;4.15;;;;;;;;;;5099047;28;20463;-66
2023/05/07 11:03:58;;;;;;;4.43;4.07;;;;;;;;;;5098356;28;20253;-66
2023/05/07 11:06:27;;;;;;;4.22;3.92;;;;;;;;;;5098606;28;20587;-66
2023/05/07 11:08:56;;;;;;;4.63;4.22;;;;;;;;;;5099603;28;20330;-67
2023/05/07 11:11:38;;;;;;;4.95;4.50;;;;;;;;;;5099588;28;20203;-66
2023/05/07 11:14:05;;;;;;;4.70;4.30;;;;;;;;;;5098489;28;20200;-66
2023/05/07 11:16:36;;;;;;;4.80;4.40;;;;;;;;;;5099187;28;20215;-66
2023/05/07 11:19:04;;;;;;;4.60;4.20;;;;;;;;;;5098960;28;20269;-66
2023/05/07 11:21:35;;;;;;;4.53;4.22;;;;;;;;;;5099371;28;20203;-66
2023/05/07 11:24:04;;;;;;;4.60;4.20;;;;;;;;;;5097874;28;20204;-66
2023/05/07 11:26:32;;;;;;;4.63;4.22;;;;;;;;;;5098362;28;20210;-67
2023/05/07 11:29:01;;;;;;;4.25;3.95;;;;;;;;;;5098172;28;20223;-67
2023/05/07 11:31:29;;;;;;;4.72;4.10;;;;;;;;;;5099048;28;20211;-67
2023/05/07 11:33:57;;;;;;;4.10;3.80;;;;;;;;;;5098044;28;20575;-66
2023/05/07 11:36:25;;;;;;;4.00;3.70;;;;;;;;;;5099091;28;20222;-67
2023/05/07 11:38:53;;;;;;;3.90;3.60;;;;;;;;;;5098620;28;20797;-66
2023/05/07 11:41:22;;;;;;;4.10;3.70;;;;;;;;;;5098448;28;20548;-66
2023/05/07 11:43:57;;;;;;;4.20;3.90;;;;;;;;;;5099212;28;20211;-66
2023/05/07 11:46:24;;;;;;;4.18;3.80;;;;;;;;;;5098222;28;20315;-67
2023/05/07 11:48:51;;;;;;;4.05;3.65;;;;;;;;;;5098589;28;20318;-66
2023/05/07 11:51:22;;;;;;;4.20;3.90;;;;;;;;;;5097649;28;20204;-67
2023/05/07 11:53:50;;;;;;;4.28;3.97;;;;;;;;;;5097730;28;20203;-66
2023/05/07 11:56:18;;;;;;;3.90;3.60;;;;;;;;;;5097513;28;20215;-66
2023/05/07 11:58:47;;;;;;;4.18;3.88;;;;;;;;;;5097818;28;20208;-66
2023/05/07 12:01:16;;;;;;;4.07;3.78;;;;;;;;;;5097904;28;20203;-66
2023/05/07 12:03:45;;;;;;;4.00;3.70;;;;;;;;;;5098031;28;20664;-66
2023/05/07 12:06:13;;;;;;;4.00;3.70;;;;;;;;;;5097425;28;20208;-66
2023/05/07 12:08:41;;;;;;;3.70;3.40;;;;;;;;;;5097886;28;20212;-66
2023/05/07 12:11:11;;;;;;;3.92;3.63;;;;;;;;;;5097409;28;20596;-66
2023/05/07 12:13:39;;;;;;;4.05;3.75;;;;;;;;;;5097468;28;20204;-66
2023/05/07 12:16:09;;;;;;;4.20;3.80;;;;;;;;;;5097579;28;20199;-66
2023/05/07 12:18:37;;;;;;;3.85;3.55;;;;;;;;;;5098073;28;20204;-66
2023/05/07 12:21:06;;;;;;;3.58;3.30;;;;;;;;;;5098160;28;20208;-66
2023/05/07 12:23:33;;;;;;;4.00;3.70;;;;;;;;;;5097800;28;20258;-66
2023/05/07 12:26:01;;;;;;;3.75;3.45;;;;;;;;;;5097736;28;20231;-67
2023/05/07 12:28:28;;;;;;;4.10;3.80;;;;;;;;;;5097359;28;20203;-66
2023/05/07 12:30:56;;;;;;;3.85;3.55;;;;;;;;;;5098002;28;20505;-67
2023/05/07 12:33:27;;;;;;;3.78;3.47;;;;;;;;;;5097545;28;20204;-66
2023/05/07 12:35:56;;;;;;;3.72;3.42;;;;;;;;;;5098198;28;20196;-66
2023/05/07 12:38:23;;;;;;;4.18;3.78;;;;;;;;;;5096719;28;20238;-66
2023/05/07 12:40:51;;;;;;;3.38;3.17;;;;;;;;;;5096772;28;20210;-66
2023/05/07 12:43:19;;;;;;;3.38;3.17;;;;;;;;;;5097109;28;20253;-67
2023/05/07 12:45:48;;;;;;;3.80;3.50;;;;;;;;;;5097347;28;20215;-66
2023/05/07 12:48:16;;;;;;;3.70;3.40;;;;;;;;;;5096977;28;20218;-66
2023/05/07 12:50:45;;;;;;;3.80;3.50;;;;;;;;;;5097103;28;20629;-67
2023/05/07 12:53:13;;;;;;;3.60;3.30;;;;;;;;;;5097250;28;20207;-66
2023/05/07 12:55:44;;;;;;;3.72;3.42;;;;;;;;;;5096369;28;20211;-66
2023/05/07 12:58:16;;;;;;;3.70;3.40;;;;;;;;;;5096729;28;20215;-66
2023/05/07 13:00:44;;;;;;;3.58;3.28;;;;;;;;;;5096317;28;20333;-66
2023/05/07 13:03:12;;;;;;;3.85;3.55;;;;;;;;;;5096733;28;20504;-66
2023/05/07 13:05:40;;;;;;;3.33;3.10;;;;;;;;;;5096970;28;20675;-66
2023/05/07 13:08:09;;;;;;;3.28;3.08;;;;;;;;;;5097237;28;20253;-66
2023/05/07 13:10:36;;;;;;;3.38;3.08;;;;;;;;;;5095826;28;20219;-66
2023/05/07 13:13:04;;;;;;;3.60;3.30;;;;;;;;;;5096561;28;20203;-66
2023/05/07 13:15:32;;;;;;;3.58;3.28;;;;;;;;;;5096739;28;20210;-66
2023/05/07 13:17:59;;;;;;;3.55;3.25;;;;;;;;;;5096916;28;20214;-66
2023/05/07 13:20:27;;;;;;;3.35;3.15;;;;;;;;;;5095607;28;20206;-66
2023/05/07 13:22:54;;;;;;;3.40;3.20;;;;;;;;;;5096155;28;20210;-66
2023/05/07 13:25:23;;;;;;;3.53;3.33;;;;;;;;;;5095780;28;20235;-66
2023/05/07 13:27:51;;;;;;;3.20;3.00;;;;;;;;;;5095891;28;20203;-66
2023/05/07 13:30:18;;;;;;;3.15;2.95;;;;;;;;;;5095560;28;20223;-67
2023/05/07 13:32:47;;;;;;;3.67;3.40;;;;;;;;;;5096098;28;20199;-68
2023/05/07 13:35:15;;;;;;;3.22;3.03;;;;;;;;;;5095879;28;20306;-67
2023/05/07 13:37:42;;;;;;;3.00;2.80;;;;;;;;;;5096297;28;20203;-66
2023/05/07 13:40:10;;;;;;;3.40;3.10;;;;;;;;;;5096348;28;20199;-66
2023/05/07 13:42:39;;;;;;;3.10;2.80;;;;;;;;;;5096335;28;20203;-65
2023/05/07 13:45:07;;;;;;;3.05;2.85;;;;;;;;;;5096297;28;20214;-66
2023/05/07 13:47:34;;;;;;;3.10;2.80;;;;;;;;;;5097201;28;20204;-66
2023/05/07 13:50:01;;;;;;;2.97;2.78;;;;;;;;;;5096081;28;20224;-66
2023/05/07 13:52:29;;;;;;;3.20;3.00;;;;;;;;;;5096157;28;20195;-66
2023/05/07 13:54:58;;;;;;;3.42;3.13;;;;;;;;;;5095952;28;20611;-66
2023/05/07 13:57:25;;;;;;;3.20;2.92;;;;;;;;;;5096101;28;20294;-67
2023/05/07 13:59:54;;;;;;;3.03;2.83;;;;;;;;;;5096916;28;20507;-67
2023/05/07 14:02:21;;;;;;;3.30;3.10;;;;;;;;;;5095441;28;20211;-66
2023/05/07 14:04:49;;;;;;;2.95;2.75;;;;;;;;;;5095641;28;20230;-66
2023/05/07 14:07:16;;;;;;;3.03;2.83;;;;;;;;;;5096634;28;20196;-67
2023/05/07 14:09:45;;;;;;;2.97;2.78;;;;;;;;;;5099823;28;20527;-66
2023/05/07 14:12:12;;;;;;;3.20;3.00;;;;;;;;;;5099216;28;20243;-66
2023/05/07 14:14:39;;;;;;;2.97;2.78;;;;;;;;;;5099342;28;20195;-66
2023/05/07 14:17:08;;;;;;;3.20;3.00;;;;;;;;;;5099519;28;20208;-66
2023/05/07 14:19:36;;;;;;;2.95;2.75;;;;;;;;;;5100248;28;20199;-66
2023/05/07 14:22:04;;;;;;;3.10;2.90;;;;;;;;;;5099705;28;20215;-66
2023/05/07 14:24:31;;;;;;;3.00;2.80;;;;;;;;;;5098483;28;20670;-66
2023/05/07 14:26:58;;;;;;;3.08;2.88;;;;;;;;;;5099220;28;20235;-66
2023/05/07 14:29:25;;;;;;;2.90;2.70;;;;;;;;;;5099302;28;20208;-66
2023/05/07 14:31:53;;;;;;;2.90;2.70;;;;;;;;;;5099299;28;20463;-66
2023/05/07 14:34:22;;;;;;;2.80;2.60;;;;;;;;;;5099417;28;20226;-67
2023/05/07 14:36:49;;;;;;;3.30;3.10;;;;;;;;;;5099298;28;20222;-66
2023/05/07 14:39:16;;;;;;;2.90;2.70;;;;;;;;;;5099118;28;20215;-66
2023/05/07 14:41:44;;;;;;;2.97;2.72;;;;;;;;;;5099759;28;20192;-66
2023/05/07 14:44:11;;;;;;;2.92;2.72;;;;;;;;;;5098274;28;20551;-66
2023/05/07 14:46:38;;;;;;;3.15;2.95;;;;;;;;;;5098354;28;20214;-66
2023/05/07 14:49:06;;;;;;;2.78;2.58;;;;;;;;;;5098815;28;20195;-66